Time;durP1;ratioP1;P1;durP2;ratioP2;P2;SDS_P1;SDS_P2;PMS_P1;PMS_P2;Temp;Humidity;BMP_temperature;BMP_pressure;BME280_temperature;BME280_humidity;BME280_pressure;Samples;Min_cycle;Max_cycle;Signal;HPM_P1;HPM_P2
2023/06/08 00:00:50;;;;;;;12.07;10.87;;;18.20;99.90;;;;;;4991577;28;20193;-66
2023/06/08 00:03:18;;;;;;;12.67;11.20;;;18.10;99.90;;;;;;4990704;28;20582;-66
2023/06/08 00:05:49;;;;;;;11.30;10.20;;;18.10;99.90;;;;;;5002308;28;20177;-66
2023/06/08 00:08:15;;;;;;;13.33;11.93;;;18.10;99.90;;;;;;5011806;28;20688;-66
2023/06/08 00:10:44;;;;;;;14.97;11.70;;;18.10;99.90;;;;;;5011565;28;20207;-66
2023/06/08 00:13:11;;;;;;;12.23;11.13;;;18.00;99.90;;;;;;5011452;28;20183;-66
2023/06/08 00:15:36;;;;;;;13.03;11.77;;;18.00;99.90;;;;;;4996305;28;20271;-66
2023/06/08 00:18:02;;;;;;;16.47;10.33;;;18.00;99.90;;;;;;4991789;28;20264;-66
2023/06/08 00:20:28;;;;;;;11.37;10.17;;;18.10;99.90;;;;;;4991458;28;20198;-66
2023/06/08 00:22:56;;;;;;;12.47;11.27;;;18.00;99.90;;;;;;4991897;28;20183;-66
2023/06/08 00:25:21;;;;;;;12.70;10.57;;;18.00;99.90;;;;;;4991681;28;20192;-66
2023/06/08 00:27:47;;;;;;;11.63;10.53;;;17.90;99.90;;;;;;4995746;28;20192;-66
2023/06/08 00:30:16;;;;;;;11.90;10.80;;;17.90;99.90;;;;;;4995245;28;20200;-66
2023/06/08 00:32:41;;;;;;;13.53;10.87;;;17.80;99.90;;;;;;4995851;28;20196;-66
2023/06/08 00:35:08;;;;;;;13.87;11.03;;;17.80;99.90;;;;;;4995542;28;20173;-66
2023/06/08 00:37:35;;;;;;;13.90;11.83;;;17.70;99.90;;;;;;4995609;28;20209;-66
2023/06/08 00:40:01;;;;;;;11.23;10.23;;;17.80;99.90;;;;;;4994669;28;20774;-66
2023/06/08 00:42:27;;;;;;;12.23;11.03;;;17.70;99.90;;;;;;4995353;28;20207;-66
2023/06/08 00:44:52;;;;;;;12.57;11.27;;;17.70;99.90;;;;;;4995709;28;20176;-66
2023/06/08 00:47:18;;;;;;;12.20;11.00;;;17.70;99.90;;;;;;4995394;28;20568;-66
2023/06/08 00:49:45;;;;;;;14.57;13.07;;;17.70;99.90;;;;;;4995136;28;20184;-66
2023/06/08 00:52:10;;;;;;;14.63;12.30;;;17.60;99.90;;;;;;4995102;28;20220;-66
2023/06/08 00:54:39;;;;;;;12.80;11.67;;;17.60;99.90;;;;;;4995417;28;20568;-66
2023/06/08 00:57:06;;;;;;;15.63;11.67;;;17.50;99.90;;;;;;4995208;28;20196;-66
2023/06/08 00:59:32;;;;;;;14.03;12.73;;;17.50;99.90;;;;;;4995020;28;20302;-66
2023/06/08 01:01:59;;;;;;;13.23;11.83;;;17.50;99.90;;;;;;4995145;28;20239;-66
2023/06/08 01:04:25;;;;;;;13.33;11.97;;;17.50;99.90;;;;;;4995286;28;20173;-66
2023/06/08 01:07:02;;;;;;;14.40;11.73;;;17.40;99.90;;;;;;4995007;28;20192;-66
2023/06/08 01:09:48;;;;;;;19.67;12.70;;;17.40;99.90;;;;;;4994862;28;20207;-65
2023/06/08 01:12:19;;;;;;;13.30;11.43;;;17.30;99.90;;;;;;4995017;28;20177;-65
2023/06/08 01:14:51;;;;;;;12.80;10.93;;;17.30;99.90;;;;;;4995105;28;20197;-65
2023/06/08 01:17:23;;;;;;;14.53;11.23;;;17.20;99.90;;;;;;4994815;28;20200;-65
2023/06/08 01:20:06;;;;;;;13.47;10.73;;;17.20;99.90;;;;;;4994645;28;20209;-65
2023/06/08 01:22:47;;;;;;;15.07;12.63;;;17.10;99.90;;;;;;4994670;28;20550;-65
2023/06/08 01:25:14;;;;;;;15.17;13.30;;;17.10;99.90;;;;;;4994934;28;20338;-65
2023/06/08 01:27:40;;;;;;;14.90;13.40;;;17.00;99.90;;;;;;4995224;28;20212;-65
2023/06/08 01:30:07;;;;;;;16.70;12.77;;;16.90;99.90;;;;;;4994313;28;20173;-66
2023/06/08 01:32:32;;;;;;;15.20;13.20;;;16.90;99.90;;;;;;4994887;28;20258;-65
2023/06/08 01:34:58;;;;;;;14.97;13.37;;;16.80;99.90;;;;;;4994764;28;20267;-65
2023/06/08 01:37:42;;;;;;;15.60;14.00;;;16.70;99.90;;;;;;4993859;28;20201;-65
2023/06/08 01:40:28;;;;;;;16.10;13.93;;;16.70;99.90;;;;;;4993446;28;20234;-65
2023/06/08 01:42:54;;;;;;;15.00;13.40;;;16.60;99.90;;;;;;4994463;28;20646;-65
2023/06/08 01:45:28;;;;;;;16.80;14.30;;;16.60;99.90;;;;;;4994467;28;20181;-65
2023/06/08 01:48:05;;;;;;;15.83;13.77;;;16.50;99.90;;;;;;4994092;28;20184;-66
2023/06/08 01:50:32;;;;;;;15.97;14.37;;;16.50;99.90;;;;;;4994130;28;20635;-65
2023/06/08 01:52:58;;;;;;;15.30;13.70;;;16.50;99.90;;;;;;4994325;28;20171;-65
2023/06/08 01:55:24;;;;;;;15.10;13.60;;;16.50;99.90;;;;;;4994259;28;20624;-65
2023/06/08 01:57:50;;;;;;;16.80;14.17;;;16.40;99.90;;;;;;4994073;28;20231;-65
2023/06/08 02:00:17;;;;;;;15.93;13.87;;;16.40;99.90;;;;;;4993830;28;20180;-66
2023/06/08 02:02:44;;;;;;;20.33;14.33;;;16.40;99.90;;;;;;4994364;28;20212;-65
2023/06/08 02:05:11;;;;;;;15.90;14.17;;;16.30;99.90;;;;;;4993989;28;20255;-65
2023/06/08 02:07:37;;;;;;;18.43;14.37;;;16.30;99.90;;;;;;4994129;28;20228;-65
2023/06/08 02:10:04;;;;;;;17.83;14.57;;;16.30;99.90;;;;;;4993713;28;20211;-65
2023/06/08 02:12:30;;;;;;;16.30;14.70;;;16.30;99.90;;;;;;4994027;28;20173;-65
2023/06/08 02:14:56;;;;;;;16.73;14.80;;;16.20;99.90;;;;;;4994042;28;20187;-65
2023/06/08 02:17:27;;;;;;;16.20;14.47;;;16.20;99.90;;;;;;4993633;28;20228;-65
2023/06/08 02:19:56;;;;;;;16.83;15.10;;;16.20;99.90;;;;;;4993405;28;20197;-65
2023/06/08 02:22:22;;;;;;;15.97;14.30;;;16.10;99.90;;;;;;4993665;28;20184;-65
2023/06/08 02:24:49;;;;;;;15.83;14.30;;;16.10;99.90;;;;;;4994195;28;20260;-65
2023/06/08 02:27:16;;;;;;;16.00;14.50;;;16.10;99.90;;;;;;4993336;28;20303;-65
2023/06/08 02:29:42;;;;;;;15.53;14.03;;;16.00;99.90;;;;;;4993045;28;20176;-65
2023/06/08 02:32:08;;;;;;;16.57;14.87;;;16.10;99.90;;;;;;4993639;28;20689;-65
2023/06/08 02:34:36;;;;;;;16.63;15.03;;;16.00;99.90;;;;;;4994104;28;20208;-72
2023/06/08 02:37:02;;;;;;;18.23;14.77;;;16.00;99.90;;;;;;4994356;28;20578;-69
2023/06/08 02:39:28;;;;;;;17.20;15.60;;;16.00;99.90;;;;;;4993167;28;20292;-70
2023/06/08 02:41:53;;;;;;;18.00;14.87;;;16.00;99.90;;;;;;4994148;28;20177;-70
2023/06/08 02:44:19;;;;;;;23.03;15.70;;;16.00;99.90;;;;;;4994042;28;20172;-68
2023/06/08 02:46:45;;;;;;;19.40;14.87;;;16.00;99.90;;;;;;4994286;28;20207;-69
2023/06/08 02:49:10;;;;;;;17.77;16.10;;;16.00;99.90;;;;;;4991923;28;20239;-68
2023/06/08 02:51:36;;;;;;;19.73;15.37;;;15.90;99.90;;;;;;4993552;28;20271;-72
2023/06/08 02:54:02;;;;;;;18.87;16.23;;;15.90;99.90;;;;;;4993814;28;20643;-68
2023/06/08 02:56:28;;;;;;;17.10;15.30;;;15.90;99.90;;;;;;4994198;28;20243;-71
2023/06/08 02:58:54;;;;;;;16.33;14.63;;;15.80;99.90;;;;;;4993804;28;20295;-68
2023/06/08 03:01:20;;;;;;;23.33;16.37;;;15.80;99.90;;;;;;4993395;28;20183;-68
2023/06/08 03:03:48;;;;;;;17.67;15.47;;;15.80;99.90;;;;;;4992431;28;20542;-68
2023/06/08 03:06:17;;;;;;;18.33;16.27;;;15.70;99.90;;;;;;4993655;28;20685;-69
2023/06/08 03:08:46;;;;;;;19.63;15.63;;;15.70;99.90;;;;;;4992687;28;20185;-68
2023/06/08 03:11:13;;;;;;;23.23;17.03;;;15.60;99.90;;;;;;4993820;28;20180;-70
2023/06/08 03:13:39;;;;;;;21.67;16.63;;;15.60;99.90;;;;;;4994052;28;20187;-70
2023/06/08 03:16:04;;;;;;;17.73;16.00;;;15.60;99.90;;;;;;4994536;28;20582;-67
2023/06/08 03:18:30;;;;;;;26.83;16.80;;;15.60;99.90;;;;;;4993863;28;20361;-70
2023/06/08 03:20:57;;;;;;;18.63;16.60;;;15.60;99.90;;;;;;4992496;28;20173;-67
2023/06/08 03:23:22;;;;;;;23.07;17.27;;;15.60;99.90;;;;;;4992587;28;20184;-67
2023/06/08 03:25:49;;;;;;;21.07;17.07;;;15.60;99.90;;;;;;4992232;28;20216;-67
2023/06/08 03:28:18;;;;;;;24.30;17.53;;;15.60;99.90;;;;;;4992563;28;20184;-66
2023/06/08 03:30:44;;;;;;;18.50;16.23;;;15.60;99.90;;;;;;4992255;28;20173;-67
2023/06/08 03:33:10;;;;;;;27.50;17.53;;;15.60;99.90;;;;;;4992588;28;20188;-66
2023/06/08 03:35:36;;;;;;;28.80;18.43;;;15.60;99.90;;;;;;4992572;28;20543;-67
2023/06/08 03:38:02;;;;;;;20.13;17.17;;;15.60;99.90;;;;;;4992259;28;20635;-67
2023/06/08 03:40:27;;;;;;;18.90;16.87;;;15.60;99.90;;;;;;4991913;28;20262;-67
2023/06/08 03:42:53;;;;;;;22.83;17.43;;;15.70;99.90;;;;;;4992455;28;20219;-67
2023/06/08 03:45:19;;;;;;;27.07;17.77;;;15.70;99.90;;;;;;4992107;28;20643;-67
2023/06/08 03:47:45;;;;;;;19.30;16.60;;;15.70;99.90;;;;;;4992187;28;20193;-67
2023/06/08 03:50:13;;;;;;;19.00;16.97;;;15.60;99.90;;;;;;4991764;28;20543;-67
2023/06/08 03:52:39;;;;;;;25.57;17.03;;;15.60;99.90;;;;;;4992292;28;20187;-67
2023/06/08 03:55:08;;;;;;;18.70;15.43;;;15.70;99.90;;;;;;4992334;28;20172;-67
2023/06/08 03:57:35;;;;;;;25.03;17.30;;;15.70;99.90;;;;;;4992169;28;20211;-67
2023/06/08 04:00:01;;;;;;;22.10;16.37;;;15.70;99.90;;;;;;4991291;28;20696;-67
2023/06/08 04:02:26;;;;;;;23.03;16.37;;;15.70;99.90;;;;;;4992180;28;20165;-67
2023/06/08 04:04:53;;;;;;;22.40;16.53;;;15.80;99.90;;;;;;4992112;28;20562;-67
2023/06/08 04:07:20;;;;;;;20.90;16.03;;;15.80;99.90;;;;;;4991856;28;20185;-67
2023/06/08 04:09:46;;;;;;;22.07;17.00;;;15.80;99.90;;;;;;4991602;28;20227;-67
2023/06/08 04:12:12;;;;;;;24.37;17.37;;;15.80;99.90;;;;;;4991886;28;20184;-67
2023/06/08 04:14:38;;;;;;;19.13;16.10;;;15.90;99.90;;;;;;4991785;28;20191;-67
2023/06/08 04:17:04;;;;;;;21.20;15.17;;;15.90;99.90;;;;;;4991931;28;20215;-67
2023/06/08 04:19:30;;;;;;;25.10;15.93;;;15.90;99.90;;;;;;4991551;28;20259;-67
2023/06/08 04:21:56;;;;;;;20.27;15.73;;;16.00;99.90;;;;;;4991814;28;20646;-67
2023/06/08 04:24:22;;;;;;;18.33;16.37;;;16.10;99.90;;;;;;4991768;28;20657;-67
2023/06/08 04:26:48;;;;;;;19.50;15.77;;;16.10;99.90;;;;;;4991790;28;20217;-67
2023/06/08 04:29:14;;;;;;;18.20;16.27;;;16.20;99.90;;;;;;4991603;28;20188;-67
2023/06/08 04:31:40;;;;;;;21.50;15.87;;;16.20;99.90;;;;;;4991832;28;20184;-67
2023/06/08 04:34:06;;;;;;;22.60;16.37;;;16.30;99.90;;;;;;4990470;28;20185;-67
2023/06/08 04:36:31;;;;;;;20.13;15.90;;;16.40;99.90;;;;;;4991350;28;20208;-67
2023/06/08 04:38:57;;;;;;;21.63;17.30;;;16.50;99.90;;;;;;4991745;28;20240;-67
2023/06/08 04:41:25;;;;;;;17.90;15.07;;;16.70;99.90;;;;;;4991350;28;20173;-67
2023/06/08 04:43:52;;;;;;;19.70;15.40;;;16.80;99.90;;;;;;4991484;28;20267;-67
2023/06/08 04:46:17;;;;;;;19.53;14.13;;;17.00;99.90;;;;;;4991624;28;20663;-67
2023/06/08 04:48:43;;;;;;;17.47;13.97;;;17.10;99.90;;;;;;4991789;28;20185;-67
2023/06/08 04:51:09;;;;;;;18.83;14.33;;;17.20;99.90;;;;;;4991322;28;20177;-67
2023/06/08 04:53:35;;;;;;;16.27;14.47;;;17.30;99.90;;;;;;4991616;28;20184;-67
2023/06/08 04:56:02;;;;;;;15.37;12.97;;;17.40;99.90;;;;;;4991611;28;20247;-67
2023/06/08 04:58:28;;;;;;;14.60;12.90;;;17.50;99.90;;;;;;4991271;28;20207;-67
2023/06/08 05:00:55;;;;;;;15.63;12.47;;;17.70;99.90;;;;;;4991346;28;20690;-67
2023/06/08 05:03:21;;;;;;;22.47;13.13;;;17.80;99.90;;;;;;4991368;28;20678;-67
2023/06/08 05:05:47;;;;;;;18.57;11.40;;;18.00;99.90;;;;;;4991720;28;20220;-67
2023/06/08 05:08:13;;;;;;;19.03;13.93;;;18.10;99.90;;;;;;4991693;28;20666;-67
2023/06/08 05:10:39;;;;;;;14.47;12.10;;;18.30;99.90;;;;;;4991344;28;20188;-65
2023/06/08 05:13:05;;;;;;;18.37;13.73;;;18.40;99.90;;;;;;4993982;28;20177;-65
2023/06/08 05:15:31;;;;;;;15.80;12.17;;;18.50;99.90;;;;;;4994861;28;20226;-65
2023/06/08 05:17:57;;;;;;;16.00;11.93;;;18.70;99.90;;;;;;4994834;28;20192;-65
2023/06/08 05:20:24;;;;;;;17.17;13.10;;;18.70;99.90;;;;;;4994601;28;20168;-65
2023/06/08 05:22:50;;;;;;;14.47;12.87;;;18.80;99.90;;;;;;4995012;28;20173;-64
2023/06/08 05:25:15;;;;;;;20.97;12.70;;;18.80;99.90;;;;;;4994713;28;20191;-65
2023/06/08 05:27:41;;;;;;;16.80;12.57;;;18.90;99.90;;;;;;4994601;28;20220;-67
2023/06/08 05:30:07;;;;;;;14.90;12.37;;;19.00;99.90;;;;;;4994512;28;20177;-65
2023/06/08 05:32:32;;;;;;;15.93;12.67;;;18.90;99.90;;;;;;4994707;28;20528;-65
2023/06/08 05:34:58;;;;;;;13.87;12.40;;;18.90;99.90;;;;;;4993674;28;20199;-66
2023/06/08 05:37:25;;;;;;;14.53;11.70;;;19.00;99.90;;;;;;4994534;28;20205;-65
2023/06/08 05:39:50;;;;;;;16.00;11.40;;;18.90;99.90;;;;;;4994271;28;20200;-65
2023/06/08 05:42:16;;;;;;;14.20;10.43;;;19.10;99.90;;;;;;4994592;28;20169;-65
2023/06/08 05:44:41;;;;;;;15.40;12.25;;;19.30;99.90;;;;;;4994495;28;20666;-66
2023/06/08 05:47:07;;;;;;;12.50;11.30;;;19.60;99.90;;;;;;4994609;28;20591;-66
2023/06/08 05:49:33;;;;;;;12.25;11.00;;;19.90;99.90;;;;;;4994321;28;20208;-65
2023/06/08 05:51:58;;;;;;;21.15;12.10;;;20.00;99.90;;;;;;4994259;28;20176;-65
2023/06/08 05:54:24;;;;;;;13.38;11.95;;;20.10;99.90;;;;;;4994306;28;20227;-66
2023/06/08 05:56:50;;;;;;;13.77;11.70;;;20.40;99.90;;;;;;4994281;28;20211;-65
2023/06/08 05:59:16;;;;;;;13.50;12.05;;;20.80;99.90;;;;;;4993781;28;20299;-65
2023/06/08 06:01:42;;;;;;;15.18;13.98;;;21.00;99.90;;;;;;4994490;28;20595;-65
2023/06/08 06:04:08;;;;;;;18.60;16.95;;;21.00;99.90;;;;;;4994036;28;20189;-65
2023/06/08 06:06:35;;;;;;;19.83;17.98;;;21.10;99.90;;;;;;4993082;28;20621;-65
2023/06/08 06:09:01;;;;;;;15.10;13.70;;;21.20;99.90;;;;;;4994223;28;20177;-65
2023/06/08 06:11:26;;;;;;;15.80;11.45;;;21.20;99.90;;;;;;4992491;28;20180;-65
2023/06/08 06:13:52;;;;;;;11.98;10.98;;;21.40;99.90;;;;;;4993805;28;20200;-65
2023/06/08 06:16:18;;;;;;;11.88;9.55;;;21.60;99.90;;;;;;4993627;28;20193;-65
2023/06/08 06:18:45;;;;;;;12.63;9.07;;;22.10;99.90;;;;;;4993764;28;20339;-65
2023/06/08 06:21:10;;;;;;;12.68;8.40;;;22.30;99.90;;;;;;4993357;28;20182;-65
2023/06/08 06:23:36;;;;;;;13.07;9.70;;;22.60;99.90;;;;;;4993707;28;20177;-65
2023/06/08 06:26:01;;;;;;;11.27;9.25;;;22.90;99.90;;;;;;4993440;28;20208;-65
2023/06/08 06:28:27;;;;;;;12.93;9.32;;;23.20;99.90;;;;;;4993186;28;20177;-65
2023/06/08 06:30:53;;;;;;;10.27;9.15;;;23.50;99.90;;;;;;4993535;28;20173;-65
2023/06/08 06:33:18;;;;;;;12.70;8.80;;;23.70;99.90;;;;;;4993755;28;20262;-65
2023/06/08 06:35:44;;;;;;;11.38;9.70;;;24.00;99.90;;;;;;4993503;28;20456;-65
2023/06/08 06:38:09;;;;;;;12.50;9.32;;;23.90;99.90;;;;;;4992970;28;20197;-65
2023/06/08 06:40:35;;;;;;;13.85;9.38;;;24.10;99.90;;;;;;4993032;28;20528;-67
2023/06/08 06:43:01;;;;;;;12.27;9.60;;;24.20;99.90;;;;;;4993452;28;20172;-65
2023/06/08 06:45:27;;;;;;;10.55;9.55;;;24.10;99.90;;;;;;4992947;28;20247;-65
2023/06/08 06:47:52;;;;;;;11.35;10.15;;;24.40;99.90;;;;;;4991083;28;20208;-65
2023/06/08 06:50:18;;;;;;;10.60;9.60;;;24.80;99.90;;;;;;4992629;28;20200;-65
2023/06/08 06:52:44;;;;;;;10.30;9.18;;;25.20;99.90;;;;;;4993243;28;20169;-65
2023/06/08 06:55:09;;;;;;;10.73;8.63;;;25.40;99.90;;;;;;4993169;28;20263;-65
2023/06/08 06:57:36;;;;;;;9.43;8.52;;;25.50;99.90;;;;;;4992878;28;20271;-65
2023/06/08 07:00:08;;;;;;;11.57;8.52;;;25.60;99.90;;;;;;4992745;28;20224;-65
2023/06/08 07:02:33;;;;;;;9.00;7.75;;;25.70;99.90;;;;;;4992586;28;20550;-65
2023/06/08 07:05:02;;;;;;;9.38;7.50;;;26.00;99.90;;;;;;4993227;28;20177;-65
2023/06/08 07:07:28;;;;;;;11.75;8.27;;;26.10;99.90;;;;;;4992579;28;20189;-65
2023/06/08 07:09:53;;;;;;;11.10;8.90;;;26.30;99.90;;;;;;4991762;28;20188;-65
2023/06/08 07:12:19;;;;;;;11.57;8.85;;;26.50;99.90;;;;;;4992623;28;20185;-65
2023/06/08 07:14:45;;;;;;;9.60;8.63;;;26.20;99.90;;;;;;4987015;28;20588;-65
2023/06/08 07:17:14;;;;;;;13.15;8.88;;;26.50;99.90;;;;;;4991595;28;20204;-65
2023/06/08 07:19:41;;;;;;;8.68;7.63;;;26.50;99.90;;;;;;4992288;28;20220;-65
2023/06/08 07:22:07;;;;;;;8.90;8.07;;;26.60;99.90;;;;;;4992469;28;20173;-65
2023/06/08 07:24:33;;;;;;;10.52;8.68;;;26.70;99.90;;;;;;4992469;28;20267;-65
2023/06/08 07:26:59;;;;;;;11.75;7.43;;;27.00;99.90;;;;;;4992521;28;20209;-66
2023/06/08 07:29:24;;;;;;;10.25;8.60;;;27.40;99.90;;;;;;4992218;28;20661;-66
2023/06/08 07:31:50;;;;;;;10.32;8.18;;;27.50;99.90;;;;;;4991136;28;20646;-66
2023/06/08 07:34:15;;;;;;;10.75;8.50;;;27.80;99.90;;;;;;4991781;28;20220;-66
2023/06/08 07:36:42;;;;;;;8.52;7.40;;;28.30;99.90;;;;;;4992273;28;20276;-66
2023/06/08 07:39:07;;;;;;;10.50;8.13;;;28.70;99.90;;;;;;4992114;28;20196;-66
2023/06/08 07:41:33;;;;;;;10.35;9.07;;;28.50;99.90;;;;;;4992039;28;20223;-66
2023/06/08 07:43:59;;;;;;;10.48;9.52;;;28.30;99.90;;;;;;4991955;28;20208;-66
2023/06/08 07:46:25;;;;;;;9.95;9.05;;;28.40;99.90;;;;;;4991961;28;20665;-66
2023/06/08 07:48:50;;;;;;;10.30;7.53;;;28.70;99.90;;;;;;4992310;28;20239;-66
2023/06/08 07:51:16;;;;;;;9.43;7.57;;;29.20;99.90;;;;;;4990376;28;20530;-66
2023/06/08 07:53:42;;;;;;;13.63;6.88;;;29.50;99.90;;;;;;4991756;28;20200;-66
2023/06/08 07:56:08;;;;;;;8.30;7.38;;;29.40;99.90;;;;;;4991756;28;20604;-66
2023/06/08 07:58:33;;;;;;;7.75;6.95;;;29.60;99.90;;;;;;4991988;28;20215;-66
2023/06/08 08:01:00;;;;;;;12.45;6.80;;;30.10;99.90;;;;;;4990367;28;20547;-66
2023/06/08 08:03:25;;;;;;;8.95;6.47;;;30.70;99.90;;;;;;4991925;28;20551;-66
2023/06/08 08:05:52;;;;;;;6.90;6.22;;;30.70;99.90;;;;;;4991958;28;20202;-66
2023/06/08 08:08:18;;;;;;;7.43;6.22;;;30.70;99.90;;;;;;4991208;28;20176;-66
2023/06/08 08:10:43;;;;;;;7.63;6.78;;;30.90;99.90;;;;;;4991167;28;20531;-66
2023/06/08 08:13:09;;;;;;;7.32;6.28;;;30.70;99.90;;;;;;4991654;28;20179;-66
2023/06/08 08:15:35;;;;;;;9.40;6.70;;;30.60;99.90;;;;;;4991612;28;20169;-66
2023/06/08 08:18:01;;;;;;;8.35;6.55;;;30.30;99.90;;;;;;4991999;28;20177;-66
2023/06/08 08:20:27;;;;;;;6.22;5.63;;;30.00;99.90;;;;;;4991603;28;20192;-66
2023/06/08 08:22:53;;;;;;;9.43;6.45;;;30.20;99.90;;;;;;4991813;28;20235;-66
2023/06/08 08:25:19;;;;;;;6.72;6.07;;;30.20;99.90;;;;;;4991917;28;20184;-66
2023/06/08 08:27:44;;;;;;;8.88;6.70;;;30.50;99.90;;;;;;4991200;28;20199;-66
2023/06/08 08:30:10;;;;;;;7.68;6.93;;;30.40;99.90;;;;;;4989698;28;20185;-66
2023/06/08 08:32:36;;;;;;;6.00;5.55;;;30.30;99.90;;;;;;4991695;28;20589;-66
2023/06/08 08:35:02;;;;;;;8.35;6.60;;;30.40;99.90;;;;;;4991808;28;20196;-66
2023/06/08 08:37:28;;;;;;;8.23;6.22;;;30.80;99.90;;;;;;4991547;28;20679;-65
2023/06/08 08:39:53;;;;;;;8.45;6.78;;;31.20;99.90;;;;;;4991336;28;20216;-66
2023/06/08 08:42:25;;;;;;;9.20;7.47;;;31.70;99.90;;;;;;4991379;28;20230;-66
2023/06/08 08:44:56;;;;;;;10.25;9.45;;;31.70;99.90;;;;;;4991663;28;20173;-66
2023/06/08 08:47:28;;;;;;;8.77;8.18;;;31.40;99.90;;;;;;4992956;28;20681;-66
2023/06/08 08:50:06;;;;;;;8.80;7.25;;;31.30;99.90;;;;;;4995106;28;20177;-66
2023/06/08 08:52:37;;;;;;;7.70;7.03;;;31.30;99.90;;;;;;4995190;28;20524;-66
2023/06/08 08:55:04;;;;;;;10.13;7.47;;;31.90;99.90;;;;;;4995428;28;20231;-66
2023/06/08 08:57:31;;;;;;;6.50;5.90;;;32.10;99.90;;;;;;4994445;28;20228;-66
2023/06/08 08:59:57;;;;;;;7.28;6.30;;;32.50;99.90;;;;;;4995098;28;20306;-66
2023/06/08 09:02:23;;;;;;;7.70;7.00;;;32.60;99.90;;;;;;4992581;28;20593;-66
2023/06/08 09:04:51;;;;;;;7.05;6.45;;;32.60;99.90;;;;;;4995211;28;20173;-66
2023/06/08 09:07:21;;;;;;;6.45;5.90;;;33.10;99.90;;;;;;4994807;28;20231;-66
2023/06/08 09:10:15;;;;;;;8.23;6.28;;;32.90;99.90;;;;;;4994624;28;20185;-66
2023/06/08 09:12:46;;;;;;;7.43;6.72;;;33.30;99.90;;;;;;4995109;28;20311;-66
2023/06/08 09:15:13;;;;;;;6.65;6.05;;;33.60;99.90;;;;;;4994100;28;20181;-66
2023/06/08 09:17:40;;;;;;;5.95;5.35;;;33.70;99.90;;;;;;4994003;28;20288;-66
2023/06/08 09:20:08;;;;;;;7.97;7.20;;;33.80;99.90;;;;;;4994329;28;20204;-66
2023/06/08 09:22:38;;;;;;;8.15;5.63;;;34.10;99.90;;;;;;4994803;28;20651;-66
2023/06/08 09:25:05;;;;;;;5.68;5.20;;;34.70;99.90;;;;;;4994637;28;20639;-66
2023/06/08 09:27:31;;;;;;;6.50;5.15;;;34.80;99.90;;;;;;4993727;28;20199;-66
2023/06/08 09:30:02;;;;;;;7.07;6.38;;;34.80;99.90;;;;;;4993215;28;20269;-66
2023/06/08 09:32:33;;;;;;;6.25;5.65;;;34.40;99.90;;;;;;4994106;28;20678;-66
2023/06/08 09:35:01;;;;;;;6.72;6.13;;;34.30;99.90;;;;;;4992553;28;20184;-66
2023/06/08 09:37:32;;;;;;;5.90;5.35;;;34.50;99.90;;;;;;4994340;28;20193;-66
2023/06/08 09:40:00;;;;;;;7.32;6.38;;;34.60;99.90;;;;;;4994372;28;20204;-66
2023/06/08 09:42:42;;;;;;;7.93;6.40;;;34.80;99.90;;;;;;4994131;28;20169;-66
2023/06/08 09:45:11;;;;;;;7.50;5.97;;;34.70;99.90;;;;;;4994421;28;20172;-66
2023/06/08 09:47:37;;;;;;;6.85;6.25;;;35.00;99.90;;;;;;4994388;28;20317;-66
2023/06/08 09:50:06;;;;;;;5.78;5.28;;;34.80;99.90;;;;;;4993996;28;20180;-66
2023/06/08 09:52:32;;;;;;;7.47;6.60;;;34.70;99.90;;;;;;4994167;28;20275;-66
2023/06/08 09:54:58;;;;;;;7.70;6.28;;;34.40;99.90;;;;;;4994414;28;20260;-66
2023/06/08 09:57:26;;;;;;;6.63;6.05;;;34.30;99.90;;;;;;4993667;28;20275;-66
2023/06/08 10:00:09;;;;;;;6.95;5.82;;;34.40;99.90;;;;;;4993442;28;20201;-66
2023/06/08 10:02:47;;;;;;;7.22;6.50;;;34.40;99.90;;;;;;4994048;28;20168;-66
2023/06/08 10:05:20;;;;;;;9.90;6.72;;;34.20;99.90;;;;;;4994043;28;20220;-66
2023/06/08 10:07:48;;;;;;;7.35;6.70;;;33.80;99.90;;;;;;4976996;28;20197;-66
2023/06/08 10:10:29;;;;;;;7.75;7.05;;;33.40;99.90;;;;;;4990813;28;20177;-66
2023/06/08 10:12:56;;;;;;;6.90;6.20;;;33.00;99.90;;;;;;4993864;28;20180;-66
2023/06/08 10:15:22;;;;;;;9.02;8.23;;;32.90;99.90;;;;;;4993778;28;20706;-66
2023/06/08 10:17:50;;;;;;;9.00;8.27;;;32.30;99.90;;;;;;4993450;28;20255;-66
2023/06/08 10:20:16;;;;;;;8.65;8.02;;;31.80;99.90;;;;;;4991887;28;20204;-65
2023/06/08 10:22:42;;;;;;;8.52;7.22;;;31.70;99.90;;;;;;4993423;28;20173;-66
2023/06/08 10:25:11;;;;;;;7.10;6.60;;;31.40;99.90;;;;;;4993490;28;20161;-66
2023/06/08 10:27:36;;;;;;;7.53;6.82;;;31.20;99.90;;;;;;4993468;28;20284;-66
2023/06/08 10:30:04;;;;;;;8.07;7.32;;;31.30;99.90;;;;;;4993231;28;20256;-66
2023/06/08 10:32:32;;;;;;;8.10;6.97;;;31.10;99.90;;;;;;4992990;28;20227;-66
2023/06/08 10:35:01;;;;;;;9.07;6.07;;;30.90;99.90;;;;;;4993322;28;20173;-66
2023/06/08 10:37:28;;;;;;;7.13;6.50;;;30.80;99.90;;;;;;4991416;28;20204;-66
2023/06/08 10:39:54;;;;;;;6.75;6.07;;;31.10;99.90;;;;;;4992604;28;20247;-66
2023/06/08 10:42:20;;;;;;;6.68;6.07;;;30.90;99.90;;;;;;4992890;28;20173;-66
2023/06/08 10:45:06;;;;;;;7.00;6.35;;;30.80;99.90;;;;;;4993059;28;20196;-66
2023/06/08 10:47:36;;;;;;;7.50;6.65;;;30.90;99.90;;;;;;4992962;28;20617;-66
2023/06/08 10:50:09;;;;;;;7.22;6.40;;;31.00;99.90;;;;;;4992559;28;20260;-66
2023/06/08 10:52:47;;;;;;;7.43;6.22;;;31.00;99.90;;;;;;4993014;28;20546;-66
2023/06/08 10:55:15;;;;;;;10.00;6.22;;;31.60;99.90;;;;;;4992838;28;20486;-66
2023/06/08 10:57:45;;;;;;;8.82;6.00;;;31.70;99.90;;;;;;4993135;28;20627;-66
2023/06/08 11:00:30;;;;;;;6.80;6.20;;;32.10;99.90;;;;;;4992161;28;20235;-66
2023/06/08 11:02:59;;;;;;;6.03;5.60;;;32.60;99.90;;;;;;4992985;28;20173;-66
2023/06/08 11:05:29;;;;;;;7.00;6.40;;;32.50;99.90;;;;;;4992658;28;20532;-66
2023/06/08 11:07:56;;;;;;;8.25;6.53;;;32.30;99.90;;;;;;4989776;28;20173;-66
2023/06/08 11:10:23;;;;;;;7.20;6.70;;;32.20;99.90;;;;;;4990781;28;20196;-66
2023/06/08 11:12:48;;;;;;;8.85;8.00;;;32.50;99.90;;;;;;4992844;28;20176;-66
2023/06/08 11:15:14;;;;;;;7.55;6.95;;;32.50;99.90;;;;;;4992615;28;20169;-66
2023/06/08 11:17:48;;;;;;;9.82;9.13;;;32.70;99.90;;;;;;4992774;28;20678;-66
2023/06/08 11:20:13;;;;;;;7.50;6.72;;;32.40;99.90;;;;;;4991789;28;20200;-66
2023/06/08 11:22:40;;;;;;;8.18;7.47;;;32.00;99.90;;;;;;4992598;28;20176;-65
2023/06/08 11:25:08;;;;;;;8.60;7.85;;;31.80;99.90;;;;;;4992475;28;20172;-66
2023/06/08 11:27:43;;;;;;;8.10;7.40;;;31.50;99.90;;;;;;4992355;28;20567;-66
2023/06/08 11:30:15;;;;;;;7.70;6.97;;;31.60;99.90;;;;;;4991342;28;20247;-66
2023/06/08 11:32:43;;;;;;;9.00;6.60;;;31.90;99.90;;;;;;4992540;28;20669;-66
2023/06/08 11:35:09;;;;;;;9.80;8.07;;;32.10;99.90;;;;;;4992321;28;20647;-66
2023/06/08 11:37:36;;;;;;;7.70;7.00;;;32.20;99.90;;;;;;4992281;28;20567;-66
2023/06/08 11:40:08;;;;;;;8.23;7.40;;;32.10;99.90;;;;;;4991833;28;20211;-66
2023/06/08 11:42:39;;;;;;;6.03;5.53;;;32.30;99.90;;;;;;4992295;28;20184;-66
2023/06/08 11:45:06;;;;;;;5.85;5.35;;;32.80;99.90;;;;;;4991264;28;20576;-66
2023/06/08 11:47:32;;;;;;;6.22;5.63;;;33.10;99.90;;;;;;4991642;28;20201;-66
2023/06/08 11:50:00;;;;;;;8.23;6.20;;;33.80;99.90;;;;;;4991327;28;20173;-65
2023/06/08 11:52:27;;;;;;;6.07;5.50;;;34.20;99.90;;;;;;4991791;28;20541;-66
2023/06/08 11:54:54;;;;;;;5.85;5.45;;;34.50;99.90;;;;;;4992000;28;20224;-66
2023/06/08 11:57:21;;;;;;;6.03;5.53;;;34.70;99.90;;;;;;4991783;28;20242;-66
2023/06/08 11:59:47;;;;;;;5.78;5.28;;;34.90;99.90;;;;;;4991939;28;20303;-66
2023/06/08 12:02:13;;;;;;;5.90;5.30;;;35.00;99.90;;;;;;4991886;28;20180;-66
2023/06/08 12:04:40;;;;;;;6.32;5.85;;;35.30;99.90;;;;;;4991615;28;20188;-66
2023/06/08 12:07:14;;;;;;;7.18;6.50;;;35.50;99.90;;;;;;4999173;28;20193;-66
2023/06/08 12:09:51;;;;;;;8.27;6.32;;;35.30;99.90;;;;;;4998962;28;20239;-66
2023/06/08 12:12:17;;;;;;;7.15;6.43;;;34.40;99.90;;;;;;4991444;28;20173;-66
2023/06/08 12:14:47;;;;;;;9.13;7.32;;;33.80;99.90;;;;;;4991552;28;20247;-66
2023/06/08 12:17:16;;;;;;;9.70;8.73;;;33.10;99.90;;;;;;4991576;28;20203;-66
2023/06/08 12:19:46;;;;;;;9.00;8.20;;;32.90;99.90;;;;;;4991420;28;20283;-65
2023/06/08 12:22:14;;;;;;;10.30;9.52;;;32.90;99.90;;;;;;4996841;28;20172;-66
2023/06/08 12:24:40;;;;;;;8.77;7.82;;;33.20;99.90;;;;;;4998329;28;20176;-66
2023/06/08 12:27:06;;;;;;;7.50;6.90;;;33.40;99.90;;;;;;4998017;28;20564;-66
2023/06/08 12:29:33;;;;;;;8.05;7.25;;;33.40;99.90;;;;;;4997754;28;20695;-66
2023/06/08 12:31:59;;;;;;;7.90;6.20;;;33.20;99.90;;;;;;4998356;28;20547;-66
2023/06/08 12:34:26;;;;;;;8.82;7.47;;;32.70;99.90;;;;;;4998135;28;20656;-66
2023/06/08 12:36:52;;;;;;;8.38;7.05;;;32.50;99.90;;;;;;4998333;28;20200;-66